createdAt,value
2023-01-29T00:01:23.762Z,13.68
2023-01-29T00:06:25.895Z,20.55
2023-01-29T00:11:28.122Z,15.85
2023-01-29T00:16:30.441Z,14.27
2023-01-29T00:21:32.704Z,17.42
2023-01-29T00:26:35.025Z,13.38
2023-01-29T00:31:37.377Z,15.55
2023-01-29T00:36:39.727Z,15.63
2023-01-29T00:42:00.085Z,14.57
2023-01-29T00:47:03.195Z,14.18
2023-01-29T00:52:23.843Z,16.05
2023-01-29T01:02:47.872Z,13.63
2023-01-29T01:12:58.692Z,14.75
2023-01-29T01:18:02.581Z,19.27
2023-01-29T01:23:05.393Z,14.35
2023-01-29T01:28:07.509Z,17.92
2023-01-29T01:33:09.693Z,14.18
2023-01-29T01:38:12.092Z,15.10
2023-01-29T01:43:14.287Z,14.73
2023-01-29T01:48:22.157Z,13.98
2023-01-29T01:53:50.238Z,16.20
2023-01-29T01:58:58.987Z,18.42
2023-01-29T02:04:26.718Z,14.68
2023-01-29T02:09:59.314Z,15.57
2023-01-29T02:15:01.499Z,11.25
2023-01-29T02:20:17.951Z,16.30
2023-01-29T02:25:35.203Z,13.80
2023-01-29T02:30:44.822Z,15.30
2023-01-29T02:35:53.559Z,11.02
2023-01-29T02:41:11.616Z,12.70
2023-01-29T02:46:35.974Z,14.15
2023-01-29T02:51:47.533Z,11.73
2023-01-29T02:56:56.796Z,13.13
2023-01-29T03:02:14.251Z,12.70
2023-01-29T03:07:40.509Z,12.13
2023-01-29T03:12:47.093Z,14.52
2023-01-29T03:17:58.527Z,13.75
2023-01-29T03:23:12.090Z,16.25
2023-01-29T03:28:36.877Z,13.20
2023-01-29T03:34:16.850Z,15.18
2023-01-29T03:39:19.043Z,15.20
2023-01-29T03:44:40.628Z,13.90
2023-01-29T03:50:11.912Z,15.18
2023-01-29T03:55:49.243Z,19.80
2023-01-29T04:00:59.139Z,12.32
2023-01-29T04:06:10.179Z,17.00
2023-01-29T04:11:18.580Z,14.68
2023-01-29T04:16:32.550Z,18.67
2023-01-29T04:21:37.548Z,15.77
2023-01-29T04:27:04.207Z,16.05
2023-01-29T04:32:12.250Z,14.68
2023-01-29T04:37:20.774Z,16.23
2023-01-29T04:42:50.461Z,21.02
2023-01-29T04:48:12.482Z,16.33
2023-01-29T04:53:26.221Z,24.17
2023-01-29T04:58:38.723Z,24.25
2023-01-29T05:03:46.134Z,16.00
2023-01-29T05:08:51.510Z,22.65
2023-01-29T05:13:54.509Z,21.48
2023-01-29T05:18:56.830Z,24.40
2023-01-29T05:24:12.760Z,24.70
2023-01-29T05:29:15.119Z,25.30
2023-01-29T05:34:17.288Z,24.65
2023-01-29T05:39:19.877Z,22.42
2023-01-29T05:44:22.149Z,24.50
2023-01-29T05:49:24.445Z,22.58
2023-01-29T05:54:26.576Z,18.13
2023-01-29T05:59:31.412Z,20.08
2023-01-29T06:04:33.471Z,14.65
2023-01-29T06:09:35.587Z,14.75
2023-01-29T06:14:37.677Z,14.32
2023-01-29T06:19:39.810Z,39.78
2023-01-29T06:24:41.959Z,21.52
2023-01-29T06:29:44.148Z,28.50
2023-01-29T06:34:48.657Z,14.70
2023-01-29T06:39:51.849Z,19.17
2023-01-29T06:44:57.146Z,15.55
2023-01-29T06:49:59.319Z,15.70
2023-01-29T06:55:01.622Z,16.20
2023-01-29T07:00:04.778Z,21.45
2023-01-29T07:05:07.186Z,16.38
2023-01-29T07:10:09.845Z,16.33
2023-01-29T07:15:13.143Z,18.08
2023-01-29T07:20:15.655Z,15.50
2023-01-29T07:25:18.087Z,18.30
2023-01-29T07:30:20.374Z,21.48
2023-01-29T07:35:22.780Z,15.73
2023-01-29T07:40:24.888Z,18.38
2023-01-29T07:45:27.316Z,15.68
2023-01-29T07:50:29.564Z,16.02
2023-01-29T07:55:32.205Z,22.67
2023-01-29T08:00:34.287Z,20.52
2023-01-29T08:05:36.610Z,14.40
2023-01-29T08:10:40.655Z,14.90
2023-01-29T08:15:46.565Z,13.95
2023-01-29T08:20:48.604Z,14.75
2023-01-29T08:25:50.754Z,18.13
2023-01-29T08:30:53.025Z,17.85
2023-01-29T08:35:55.529Z,15.32
2023-01-29T08:40:58.005Z,14.35
2023-01-29T08:46:00.216Z,16.55
2023-01-29T08:51:02.903Z,13.27
2023-01-29T08:56:05.376Z,12.80
2023-01-29T09:01:12.275Z,16.52
2023-01-29T09:06:15.133Z,12.73
2023-01-29T09:11:17.436Z,12.63
2023-01-29T09:16:19.716Z,14.75
2023-01-29T09:21:21.985Z,12.80
2023-01-29T09:26:24.124Z,15.70
2023-01-29T09:31:26.367Z,14.95
2023-01-29T09:36:28.625Z,15.27
2023-01-29T09:41:39.583Z,27.20
2023-01-29T09:46:45.315Z,19.33
2023-01-29T09:51:53.117Z,15.65
2023-01-29T09:56:57.481Z,17.77
2023-01-29T10:02:05.716Z,20.15
2023-01-29T10:07:35.634Z,16.40
2023-01-29T10:12:53.149Z,16.15
2023-01-29T10:18:06.217Z,15.07
2023-01-29T10:23:29.768Z,16.92
2023-01-29T10:28:47.960Z,13.90
2023-01-29T10:34:02.024Z,15.65
2023-01-29T10:39:04.896Z,17.30
2023-01-29T10:44:42.103Z,17.30
2023-01-29T10:50:28.742Z,19.42
2023-01-29T10:55:48.333Z,14.80
2023-01-29T11:00:51.008Z,16.37
2023-01-29T11:06:20.300Z,15.65
2023-01-29T11:11:39.999Z,14.30
2023-01-29T11:16:45.543Z,15.03
2023-01-29T11:21:58.561Z,13.32
2023-01-29T11:27:01.140Z,12.70
2023-01-29T11:32:23.476Z,14.23
2023-01-29T11:37:33.747Z,12.73
2023-01-29T11:42:35.819Z,12.70
2023-01-29T11:47:38.067Z,50.25
2023-01-29T11:52:43.818Z,16.92
2023-01-29T11:58:11.835Z,15.20
2023-01-29T12:03:23.821Z,9.07
2023-01-29T12:08:34.558Z,12.48
2023-01-29T12:13:37.195Z,12.70
2023-01-29T12:18:44.842Z,9.98
2023-01-29T12:24:07.447Z,13.32
2023-01-29T12:29:31.146Z,14.18
2023-01-29T12:34:52.586Z,11.20
2023-01-29T12:39:55.055Z,12.15
2023-01-29T12:45:09.003Z,16.73
2023-01-29T12:50:21.818Z,10.82
2023-01-29T12:55:48.137Z,14.02
2023-01-29T13:00:55.032Z,11.27
2023-01-29T13:06:12.634Z,14.43
2023-01-29T13:11:31.591Z,22.90
2023-01-29T13:16:41.213Z,11.60
2023-01-29T13:21:45.309Z,10.13
2023-01-29T13:26:49.409Z,12.75
2023-01-29T13:31:54.370Z,12.80
2023-01-29T13:36:59.606Z,15.73
2023-01-29T13:42:15.195Z,10.77
2023-01-29T13:47:29.833Z,12.10
2023-01-29T13:52:34.952Z,12.55
2023-01-29T13:57:46.660Z,8.18
2023-01-29T14:03:14.250Z,10.13
2023-01-29T14:08:16.418Z,9.13
2023-01-29T14:13:18.550Z,12.90
2023-01-29T14:18:26.704Z,13.18
2023-01-29T14:23:31.441Z,17.45
2023-01-29T14:28:35.684Z,13.95
2023-01-29T14:33:43.461Z,21.08
2023-01-29T14:38:51.826Z,14.73
2023-01-29T14:44:32.813Z,13.55
2023-01-29T14:49:50.178Z,14.57
2023-01-29T14:54:54.837Z,14.52
2023-01-29T15:00:02.590Z,15.10
2023-01-29T15:05:11.176Z,16.50
2023-01-29T15:10:33.155Z,29.48
2023-01-29T15:15:35.376Z,24.92
2023-01-29T15:20:40.060Z,12.45
2023-01-29T15:25:53.889Z,20.33
2023-01-29T15:30:58.026Z,13.65
2023-01-29T15:36:08.816Z,16.88
2023-01-29T15:41:21.800Z,13.82
2023-01-29T15:46:37.627Z,17.85
2023-01-29T15:51:40.479Z,28.35
2023-01-29T15:56:48.946Z,40.47
2023-01-29T16:01:51.237Z,23.85
2023-01-29T16:06:55.014Z,26.95
2023-01-29T16:11:59.311Z,27.25
2023-01-29T16:17:36.434Z,26.77
2023-01-29T16:22:38.995Z,23.02
2023-01-29T16:27:43.872Z,20.10
2023-01-29T16:32:46.121Z,31.10
2023-01-29T16:37:51.039Z,23.50
2023-01-29T16:43:17.793Z,22.48
2023-01-29T16:48:31.183Z,32.60
2023-01-29T16:53:35.988Z,36.67
2023-01-29T16:58:38.181Z,32.17
2023-01-29T17:03:42.270Z,29.98
2023-01-29T17:08:45.058Z,20.98
2023-01-29T17:13:47.313Z,16.83
2023-01-29T17:18:49.840Z,20.20
2023-01-29T17:23:52.549Z,18.02
2023-01-29T17:28:55.569Z,19.50
2023-01-29T17:33:58.184Z,17.35
2023-01-29T17:39:01.571Z,20.35
2023-01-29T17:44:03.864Z,21.15
2023-01-29T17:49:27.091Z,16.67
2023-01-29T17:54:29.348Z,21.67
2023-01-29T17:59:33.649Z,23.73
2023-01-29T18:04:38.389Z,18.35
2023-01-29T18:09:42.679Z,16.75
2023-01-29T18:14:45.641Z,50.05
2023-01-29T18:19:48.428Z,59.50
2023-01-29T18:24:50.584Z,35.17
2023-01-29T18:29:52.709Z,27.50
2023-01-29T18:34:55.007Z,17.40
2023-01-29T18:39:57.216Z,12.77
2023-01-29T18:45:04.121Z,17.48
2023-01-29T18:50:07.770Z,19.42
2023-01-29T18:55:10.255Z,22.25
2023-01-29T19:00:12.694Z,23.35
2023-01-29T19:05:17.286Z,24.75
2023-01-29T19:10:19.831Z,21.85
2023-01-29T19:15:23.155Z,27.63
2023-01-29T19:20:25.516Z,30.45
2023-01-29T19:25:27.605Z,22.55
2023-01-29T19:30:29.815Z,25.77
2023-01-29T19:35:32.981Z,23.90
2023-01-29T19:40:36.164Z,28.38
2023-01-29T19:45:50.441Z,25.08
2023-01-29T19:50:53.768Z,23.83
2023-01-29T19:56:02.852Z,25.52
2023-01-29T20:01:17.074Z,20.95
2023-01-29T20:06:22.888Z,25.00
2023-01-29T20:11:25.844Z,19.27
2023-01-29T20:16:28.276Z,23.83
2023-01-29T20:21:30.540Z,24.83
2023-01-29T20:26:33.362Z,24.30
2023-01-29T20:31:35.572Z,33.38
2023-01-29T20:36:37.828Z,55.88
2023-01-29T20:41:41.935Z,38.65
2023-01-29T20:46:44.084Z,37.60
2023-01-29T20:51:47.131Z,31.30
2023-01-29T20:56:49.297Z,34.40
2023-01-29T21:01:51.975Z,23.30
2023-01-29T21:06:56.885Z,24.40
2023-01-29T21:11:59.009Z,28.52
2023-01-29T21:17:02.116Z,33.10
2023-01-29T21:22:05.023Z,25.02
2023-01-29T21:27:07.090Z,18.15
2023-01-29T21:32:10.249Z,21.63
2023-01-29T21:37:12.417Z,20.50
2023-01-29T21:42:33.048Z,18.83
2023-01-29T21:52:37.102Z,20.58
2023-01-29T21:57:39.300Z,25.85
2023-01-29T22:02:41.791Z,24.00
2023-01-29T22:07:44.692Z,26.00
2023-01-29T22:12:47.529Z,26.60
2023-01-29T22:17:50.415Z,23.33
2023-01-29T22:22:52.489Z,17.80
2023-01-29T22:27:54.725Z,13.93
2023-01-29T22:32:56.860Z,13.93
2023-01-29T22:37:59.011Z,15.43
2023-01-29T22:43:01.121Z,12.00
2023-01-29T22:48:03.267Z,14.40
2023-01-29T22:53:05.731Z,14.88
2023-01-29T22:58:07.829Z,13.50
2023-01-29T23:03:09.996Z,14.73
2023-01-29T23:08:12.276Z,14.15
2023-01-29T23:13:14.569Z,14.38
2023-01-29T23:18:16.881Z,14.00
2023-01-29T23:23:19.044Z,16.10
2023-01-29T23:28:21.221Z,12.88
2023-01-29T23:33:23.501Z,16.20
2023-01-29T23:38:25.845Z,20.45
2023-01-29T23:43:28.988Z,21.80
2023-01-29T23:48:31.172Z,21.80
2023-01-29T23:53:33.309Z,13.98
2023-01-29T23:58:35.482Z,20.67
